Time;durP1;ratioP1;P1;durP2;ratioP2;P2;SDS_P1;SDS_P2;PMS_P1;PMS_P2;Temp;Humidity;BMP_temperature;BMP_pressure;BME280_temperature;BME280_humidity;BME280_pressure;Samples;Min_cycle;Max_cycle;Signal;HPM_P1;HPM_P2
2023/07/29 00:00:11;;;;;;;3.10;2.25;;;15.70;99.90;;;;;;5026098;28;20227;-84
2023/07/29 00:02:40;;;;;;;5.18;2.60;;;15.50;99.90;;;;;;5028117;28;20182;-84
2023/07/29 00:05:08;;;;;;;4.53;2.40;;;15.50;99.90;;;;;;5028349;27;20263;-83
2023/07/29 00:07:36;;;;;;;8.20;2.28;;;15.40;99.90;;;;;;5025212;28;20190;-84
2023/07/29 00:10:04;;;;;;;5.68;2.50;;;15.40;99.90;;;;;;5026811;28;20213;-83
2023/07/29 00:12:32;;;;;;;4.35;2.40;;;15.60;99.90;;;;;;5027026;28;20615;-83
2023/07/29 00:15:00;;;;;;;4.05;2.28;;;15.50;99.90;;;;;;5026928;28;20178;-83
2023/07/29 00:17:28;;;;;;;3.05;1.90;;;15.40;99.90;;;;;;5021482;28;20663;-83
2023/07/29 00:19:55;;;;;;;5.88;2.25;;;15.50;99.90;;;;;;5025360;28;20190;-83
2023/07/29 00:22:23;;;;;;;2.40;1.63;;;15.50;99.90;;;;;;5027337;28;20186;-83
2023/07/29 00:24:59;;;;;;;4.82;2.28;;;15.50;99.90;;;;;;5026928;28;20881;-84
2023/07/29 00:27:27;;;;;;;4.82;2.08;;;15.50;99.90;;;;;;5026768;28;20702;-84
2023/07/29 00:29:55;;;;;;;3.20;2.00;;;15.30;99.90;;;;;;5014430;28;20210;-83
2023/07/29 00:32:22;;;;;;;4.88;2.20;;;15.20;99.90;;;;;;5027129;28;20236;-83
2023/07/29 00:34:50;;;;;;;3.00;2.30;;;15.10;99.90;;;;;;5025422;28;20197;-83
2023/07/29 00:37:18;;;;;;;4.03;2.13;;;15.20;99.90;;;;;;5025485;28;20190;-84
2023/07/29 00:39:45;;;;;;;3.88;2.15;;;15.10;99.90;;;;;;5021991;28;20194;-83
2023/07/29 00:42:15;;;;;;;3.17;2.10;;;15.10;99.90;;;;;;5025703;28;20201;-83
2023/07/29 00:44:42;;;;;;;4.35;2.08;;;15.20;99.90;;;;;;5026830;27;20253;-83
2023/07/29 00:47:12;;;;;;;3.00;2.15;;;15.30;99.90;;;;;;5026561;28;20208;-83
2023/07/29 00:49:43;;;;;;;3.47;1.90;;;15.20;99.90;;;;;;5020979;28;20690;-83
2023/07/29 00:52:12;;;;;;;4.00;1.90;;;15.10;99.90;;;;;;5026416;28;20186;-83
2023/07/29 00:54:40;;;;;;;6.43;2.17;;;15.10;99.90;;;;;;5022126;28;20186;-83
2023/07/29 00:57:14;;;;;;;3.20;1.88;;;14.90;99.90;;;;;;5037142;28;20549;-83
2023/07/29 00:59:42;;;;;;;4.55;1.90;;;14.90;99.90;;;;;;5029722;28;20190;-83
2023/07/29 01:02:09;;;;;;;2.70;2.05;;;14.90;99.90;;;;;;5025569;28;20198;-83
2023/07/29 01:04:37;;;;;;;3.67;1.98;;;15.10;99.90;;;;;;5022214;28;20199;-84
2023/07/29 01:07:36;;;;;;;5.03;2.17;;;15.30;99.90;;;;;;5018284;28;20595;-84
2023/07/29 01:10:14;;;;;;;5.15;2.15;;;15.10;99.90;;;;;;5025051;28;20296;-84
2023/07/29 01:12:54;;;;;;;4.35;2.00;;;14.90;99.90;;;;;;5019590;28;20189;-82
2023/07/29 01:15:33;;;;;;;3.78;1.83;;;14.80;99.90;;;;;;5026060;28;20182;-83
2023/07/29 01:18:12;;;;;;;3.28;1.77;;;14.90;99.90;;;;;;5021005;28;20885;-84
2023/07/29 01:20:43;;;;;;;3.88;2.20;;;15.00;99.90;;;;;;5024377;28;20190;-84
2023/07/29 01:23:11;;;;;;;3.38;1.67;;;15.10;99.90;;;;;;5031189;28;20194;-83
2023/07/29 01:25:39;;;;;;;6.30;1.90;;;15.30;99.90;;;;;;5024385;28;20206;-83
2023/07/29 01:28:08;;;;;;;4.63;2.13;;;15.40;99.90;;;;;;5025999;28;20197;-83
2023/07/29 01:30:40;;;;;;;2.53;1.60;;;15.20;99.90;;;;;;5025465;28;20696;-82
2023/07/29 01:33:19;;;;;;;4.70;2.00;;;15.20;99.90;;;;;;5024678;28;20672;-83
2023/07/29 01:35:57;;;;;;;2.28;1.65;;;15.30;99.90;;;;;;5009026;28;20722;-83
2023/07/29 01:38:33;;;;;;;6.05;2.47;;;15.20;99.90;;;;;;5026107;28;20207;-83
2023/07/29 01:41:07;;;;;;;3.30;1.90;;;15.10;99.90;;;;;;5024671;28;20185;-83
2023/07/29 01:43:42;;;;;;;3.10;1.88;;;14.90;99.90;;;;;;5026489;28;20185;-83
2023/07/29 01:46:11;;;;;;;7.00;2.10;;;15.00;99.90;;;;;;5027436;28;20197;-83
2023/07/29 01:48:40;;;;;;;6.32;2.20;;;15.00;99.90;;;;;;5024495;28;20278;-83
2023/07/29 01:51:08;;;;;;;4.20;2.60;;;15.10;99.90;;;;;;5004998;28;20251;-83
2023/07/29 01:53:37;;;;;;;4.88;2.28;;;14.90;99.90;;;;;;5014668;28;20528;-83
2023/07/29 01:56:05;;;;;;;5.85;1.92;;;14.90;99.90;;;;;;5015512;28;20203;-83
2023/07/29 01:58:34;;;;;;;6.05;2.17;;;14.90;99.90;;;;;;5023668;28;20284;-82
2023/07/29 02:01:02;;;;;;;5.65;2.20;;;14.70;99.90;;;;;;5036580;28;20209;-83
2023/07/29 02:03:30;;;;;;;3.63;2.17;;;14.70;99.90;;;;;;5024128;28;20193;-83
2023/07/29 02:05:57;;;;;;;4.90;2.20;;;14.60;99.90;;;;;;5012776;28;20270;-83
2023/07/29 02:08:25;;;;;;;3.95;2.03;;;14.50;99.90;;;;;;5028546;28;20824;-83
2023/07/29 02:10:53;;;;;;;4.47;2.30;;;14.50;99.90;;;;;;5028608;28;20206;-83
2023/07/29 02:13:21;;;;;;;5.60;2.20;;;14.70;99.90;;;;;;5023922;28;20194;-83
2023/07/29 02:15:48;;;;;;;5.03;2.20;;;14.50;99.90;;;;;;5024817;28;20692;-83
2023/07/29 02:18:16;;;;;;;2.90;2.05;;;14.50;99.90;;;;;;5021381;28;20186;-83
2023/07/29 02:20:49;;;;;;;6.32;2.47;;;14.50;99.90;;;;;;5004832;28;20197;-83
2023/07/29 02:23:17;;;;;;;5.72;2.78;;;14.50;99.90;;;;;;5010040;28;20198;-83
2023/07/29 02:25:45;;;;;;;7.38;2.75;;;14.40;99.90;;;;;;5023944;28;20186;-83
2023/07/29 02:28:12;;;;;;;3.45;2.45;;;14.30;99.90;;;;;;5061130;28;20668;-83
2023/07/29 02:30:44;;;;;;;3.28;2.25;;;14.30;99.90;;;;;;5025375;28;20234;-83
2023/07/29 02:33:13;;;;;;;5.53;2.50;;;14.20;99.90;;;;;;5026846;28;20239;-83
2023/07/29 02:35:41;;;;;;;3.65;2.60;;;14.20;99.90;;;;;;5027628;28;20194;-82
2023/07/29 02:38:08;;;;;;;9.20;2.67;;;14.20;99.90;;;;;;5021954;28;20672;-83
2023/07/29 02:40:37;;;;;;;3.80;2.40;;;14.20;99.90;;;;;;5028423;27;20690;-83
2023/07/29 02:43:05;;;;;;;3.55;2.38;;;14.20;99.90;;;;;;5023847;28;20191;-83
2023/07/29 02:45:33;;;;;;;3.10;2.20;;;14.30;99.90;;;;;;5008943;28;20226;-84
2023/07/29 02:48:00;;;;;;;5.97;2.50;;;14.30;99.90;;;;;;5009983;28;20248;-83
2023/07/29 02:50:28;;;;;;;7.07;2.95;;;14.40;99.90;;;;;;5026788;28;20202;-83
2023/07/29 02:52:56;;;;;;;4.90;2.85;;;14.40;99.90;;;;;;5028500;28;20209;-83
2023/07/29 02:55:24;;;;;;;4.22;2.90;;;14.40;99.90;;;;;;5028748;28;20255;-83
2023/07/29 02:57:51;;;;;;;4.25;2.83;;;14.60;99.90;;;;;;5027602;28;20197;-83
2023/07/29 03:00:19;;;;;;;4.45;2.65;;;14.60;99.90;;;;;;5024632;28;20243;-82
2023/07/29 03:02:47;;;;;;;4.55;2.80;;;14.40;99.90;;;;;;5026558;28;20281;-83
2023/07/29 03:05:14;;;;;;;5.30;3.10;;;14.30;99.90;;;;;;5026607;28;20217;-83
2023/07/29 03:07:42;;;;;;;4.30;3.08;;;14.30;99.90;;;;;;5034736;28;20206;-83
2023/07/29 03:10:11;;;;;;;4.03;3.35;;;14.40;99.90;;;;;;5026557;28;20187;-85
2023/07/29 03:12:38;;;;;;;7.50;3.38;;;14.20;99.90;;;;;;5026629;28;20557;-85
2023/07/29 03:15:07;;;;;;;6.20;3.83;;;14.50;99.90;;;;;;5010569;28;20194;-85
2023/07/29 03:17:34;;;;;;;6.55;3.53;;;14.40;99.90;;;;;;5027736;28;20182;-85
2023/07/29 03:20:02;;;;;;;3.85;3.05;;;14.50;99.90;;;;;;5036966;28;20190;-85
2023/07/29 03:22:30;;;;;;;5.40;3.40;;;14.50;99.90;;;;;;5026979;28;20188;-85
2023/07/29 03:24:57;;;;;;;7.57;3.90;;;14.50;99.90;;;;;;5035207;28;20217;-85
2023/07/29 03:27:25;;;;;;;6.10;3.58;;;14.40;99.90;;;;;;5035060;28;20190;-84
2023/07/29 03:29:53;;;;;;;7.43;4.20;;;14.30;99.90;;;;;;5007150;28;20298;-84
2023/07/29 03:32:21;;;;;;;5.78;3.40;;;14.30;99.90;;;;;;5023989;28;21028;-85
2023/07/29 03:34:48;;;;;;;3.95;2.95;;;14.30;99.90;;;;;;5027654;28;20235;-84
2023/07/29 03:37:16;;;;;;;6.60;4.63;;;14.50;99.90;;;;;;5023368;28;20267;-84
2023/07/29 03:39:44;;;;;;;5.35;3.65;;;14.50;99.90;;;;;;5025003;28;20210;-84
2023/07/29 03:42:11;;;;;;;7.78;3.30;;;14.40;99.90;;;;;;5022113;28;20187;-84
2023/07/29 03:44:39;;;;;;;5.53;3.40;;;14.60;99.90;;;;;;5038592;27;20592;-84
2023/07/29 03:47:07;;;;;;;9.02;4.35;;;14.60;99.90;;;;;;5027395;28;20193;-84
2023/07/29 03:49:36;;;;;;;6.63;3.83;;;14.50;99.90;;;;;;5025971;28;20204;-83
2023/07/29 03:52:06;;;;;;;6.55;4.13;;;14.50;99.90;;;;;;5035837;28;20282;-85
2023/07/29 03:54:34;;;;;;;6.40;4.25;;;14.40;99.90;;;;;;5022599;28;20195;-84
2023/07/29 03:57:02;;;;;;;7.30;4.45;;;14.30;99.90;;;;;;5023138;28;20185;-83
2023/07/29 03:59:30;;;;;;;8.35;4.32;;;14.40;99.90;;;;;;5022613;28;20202;-84
2023/07/29 04:01:58;;;;;;;8.95;4.50;;;14.20;99.90;;;;;;5026588;28;20590;-84
2023/07/29 04:04:26;;;;;;;8.60;4.63;;;14.20;99.90;;;;;;5026546;28;20285;-84
2023/07/29 04:06:54;;;;;;;6.25;3.95;;;14.30;99.90;;;;;;5026062;28;20231;-84
2023/07/29 04:09:23;;;;;;;11.23;4.78;;;14.40;99.90;;;;;;5025703;28;20202;-84
2023/07/29 04:11:51;;;;;;;7.50;4.72;;;14.40;99.90;;;;;;5031544;28;20229;-84
2023/07/29 04:14:19;;;;;;;5.88;3.63;;;14.40;99.90;;;;;;5027112;28;20198;-84
2023/07/29 04:16:49;;;;;;;6.80;3.88;;;14.30;99.90;;;;;;5025676;28;20198;-85
2023/07/29 04:19:16;;;;;;;7.88;4.13;;;14.40;99.90;;;;;;5036140;28;20186;-85
2023/07/29 04:21:44;;;;;;;6.63;4.50;;;14.40;99.90;;;;;;5009247;28;20267;-84
2023/07/29 04:24:12;;;;;;;7.07;4.50;;;14.30;99.90;;;;;;5025705;28;20201;-84
2023/07/29 04:26:40;;;;;;;6.28;3.80;;;14.30;99.90;;;;;;5008407;28;20190;-84
2023/07/29 04:29:07;;;;;;;7.78;4.70;;;14.10;99.90;;;;;;5023643;28;20191;-84
2023/07/29 04:31:35;;;;;;;8.38;4.65;;;14.10;99.90;;;;;;5027251;28;20233;-85
2023/07/29 04:34:05;;;;;;;9.75;5.35;;;14.20;99.90;;;;;;5027082;27;20190;-84
2023/07/29 04:36:33;;;;;;;7.40;5.03;;;14.20;99.90;;;;;;5026608;28;20599;-84
2023/07/29 04:39:01;;;;;;;8.73;4.53;;;14.30;99.90;;;;;;5031612;28;20197;-84
2023/07/29 04:41:29;;;;;;;5.85;3.75;;;14.30;99.90;;;;;;5032615;28;20201;-84
2023/07/29 04:43:57;;;;;;;7.75;4.97;;;14.40;99.90;;;;;;5033871;28;20249;-84
2023/07/29 04:46:24;;;;;;;9.23;4.60;;;14.50;99.90;;;;;;5025037;28;20202;-84
2023/07/29 04:48:52;;;;;;;7.07;4.28;;;14.40;99.90;;;;;;5032939;28;20198;-85
2023/07/29 04:51:20;;;;;;;8.13;4.10;;;14.30;99.90;;;;;;5028696;28;20206;-85
2023/07/29 04:53:48;;;;;;;7.57;4.25;;;14.20;99.90;;;;;;5005583;28;20216;-84
2023/07/29 04:56:17;;;;;;;7.43;3.92;;;14.30;99.90;;;;;;5035710;28;20289;-84
2023/07/29 04:58:46;;;;;;;5.30;4.13;;;14.20;99.90;;;;;;5022069;28;20201;-84
2023/07/29 05:01:13;;;;;;;5.13;3.75;;;14.20;99.90;;;;;;5023613;28;20201;-84
2023/07/29 05:03:41;;;;;;;4.82;3.35;;;14.20;99.90;;;;;;5036791;28;20286;-84
2023/07/29 05:06:09;;;;;;;5.13;3.15;;;14.30;99.90;;;;;;5047408;28;20198;-84
2023/07/29 05:08:37;;;;;;;3.95;3.15;;;14.40;99.90;;;;;;5026570;28;20190;-85
2023/07/29 05:11:05;;;;;;;3.95;2.80;;;14.50;99.90;;;;;;5022085;28;20212;-84
2023/07/29 05:13:33;;;;;;;4.40;2.78;;;14.50;99.90;;;;;;5025851;28;20194;-84
2023/07/29 05:16:01;;;;;;;8.40;3.58;;;14.30;99.90;;;;;;5024072;28;20193;-83
2023/07/29 05:18:29;;;;;;;4.55;3.08;;;14.20;99.90;;;;;;5033562;28;20190;-84
2023/07/29 05:20:56;;;;;;;5.00;2.92;;;14.20;99.90;;;;;;5033594;28;20182;-84
2023/07/29 05:23:24;;;;;;;4.68;3.45;;;14.30;99.90;;;;;;5022983;28;20201;-83
2023/07/29 05:25:52;;;;;;;5.90;3.00;;;14.20;99.90;;;;;;5023036;28;20274;-83
2023/07/29 05:28:20;;;;;;;6.93;3.95;;;14.30;99.90;;;;;;5020015;28;20190;-84
2023/07/29 05:30:47;;;;;;;5.85;4.28;;;14.40;99.90;;;;;;5004004;28;20204;-86
2023/07/29 05:33:15;;;;;;;7.88;4.57;;;14.30;99.90;;;;;;5028550;28;20179;-85
2023/07/29 05:35:43;;;;;;;8.00;4.50;;;14.30;99.90;;;;;;5022708;28;20200;-85
2023/07/29 05:38:11;;;;;;;5.95;4.50;;;14.30;99.90;;;;;;5019800;28;20274;-84
2023/07/29 05:40:41;;;;;;;5.43;4.10;;;14.50;99.90;;;;;;5035257;28;20691;-85
2023/07/29 05:43:08;;;;;;;6.80;5.40;;;14.50;99.90;;;;;;5029512;28;20614;-84
2023/07/29 05:45:36;;;;;;;6.90;4.90;;;14.60;99.90;;;;;;5025508;28;20253;-85
2023/07/29 05:48:04;;;;;;;8.45;4.95;;;14.70;99.90;;;;;;5034522;28;20205;-84
2023/07/29 05:50:32;;;;;;;6.05;4.47;;;14.60;99.90;;;;;;5023430;28;20194;-84
2023/07/29 05:53:00;;;;;;;7.40;4.80;;;14.80;99.90;;;;;;5022544;28;20259;-83
2023/07/29 05:55:29;;;;;;;8.50;5.65;;;14.80;99.90;;;;;;5037326;28;20277;-84
2023/07/29 05:57:57;;;;;;;7.00;5.22;;;14.80;99.90;;;;;;5025596;28;20194;-84
2023/07/29 06:00:25;;;;;;;7.82;5.03;;;14.90;99.90;;;;;;5019614;28;20729;-84
2023/07/29 06:02:53;;;;;;;7.30;5.50;;;14.90;99.90;;;;;;5022961;28;20213;-84
2023/07/29 06:05:22;;;;;;;12.25;5.88;;;15.00;99.90;;;;;;5040522;28;20204;-84
2023/07/29 06:07:49;;;;;;;8.07;5.70;;;15.00;99.90;;;;;;5027937;28;20205;-84
2023/07/29 06:10:18;;;;;;;8.10;5.55;;;15.00;99.90;;;;;;5028651;28;20575;-84
2023/07/29 06:12:46;;;;;;;8.10;5.43;;;15.10;99.90;;;;;;5027023;28;20217;-84
2023/07/29 06:15:14;;;;;;;8.23;5.35;;;15.10;99.90;;;;;;5025805;28;20193;-83
2023/07/29 06:17:42;;;;;;;7.63;5.30;;;15.10;99.90;;;;;;5020511;28;20186;-84
2023/07/29 06:20:10;;;;;;;7.85;5.55;;;15.30;99.90;;;;;;5023815;28;20680;-83
2023/07/29 06:22:38;;;;;;;9.05;5.72;;;15.30;99.90;;;;;;5032894;28;20201;-84
2023/07/29 06:25:06;;;;;;;9.23;6.18;;;15.20;99.90;;;;;;5025917;28;20225;-84
2023/07/29 06:27:34;;;;;;;9.27;5.75;;;15.20;99.90;;;;;;5027382;28;20193;-84
2023/07/29 06:30:02;;;;;;;7.15;5.38;;;15.20;99.90;;;;;;5028476;28;20194;-84
2023/07/29 06:32:29;;;;;;;7.68;5.93;;;15.40;99.90;;;;;;5028140;28;20209;-84
2023/07/29 06:34:57;;;;;;;9.63;5.20;;;15.50;99.90;;;;;;5023479;28;20186;-83
2023/07/29 06:37:25;;;;;;;10.63;6.32;;;15.50;99.90;;;;;;5028376;28;20557;-85
2023/07/29 06:39:52;;;;;;;10.77;5.85;;;15.50;99.90;;;;;;5026887;28;20193;-84
2023/07/29 06:42:20;;;;;;;7.22;5.60;;;15.60;99.90;;;;;;5028224;27;20197;-84
2023/07/29 06:44:48;;;;;;;8.25;5.68;;;15.70;99.90;;;;;;5010107;28;20280;-84
2023/07/29 06:47:15;;;;;;;8.70;6.20;;;15.70;99.90;;;;;;5024777;28;20684;-84
2023/07/29 06:49:43;;;;;;;8.90;6.75;;;15.60;99.90;;;;;;5042164;28;20185;-83
2023/07/29 06:52:10;;;;;;;9.20;6.60;;;15.50;99.90;;;;;;5022992;28;20206;-84
2023/07/29 06:54:38;;;;;;;11.00;6.70;;;15.50;99.90;;;;;;5022813;28;20189;-83
2023/07/29 06:57:06;;;;;;;9.88;6.43;;;15.70;99.90;;;;;;5026648;28;20207;-83
2023/07/29 06:59:37;;;;;;;10.55;6.90;;;15.70;99.90;;;;;;5026098;28;20194;-83
2023/07/29 07:02:07;;;;;;;9.02;6.20;;;15.80;99.90;;;;;;5003919;28;20190;-84
2023/07/29 07:04:35;;;;;;;9.85;6.63;;;15.90;99.90;;;;;;5025882;28;20218;-84
2023/07/29 07:07:04;;;;;;;10.77;6.28;;;16.00;99.90;;;;;;5033994;28;20186;-85
2023/07/29 07:09:32;;;;;;;12.30;7.45;;;16.10;99.90;;;;;;5021480;28;20237;-84
2023/07/29 07:12:01;;;;;;;12.45;6.93;;;16.20;99.90;;;;;;5022423;28;20213;-84
2023/07/29 07:14:29;;;;;;;7.43;6.07;;;16.20;99.90;;;;;;5021909;28;20258;-85
2023/07/29 07:16:57;;;;;;;10.75;6.18;;;16.20;99.90;;;;;;5032354;28;20679;-84
2023/07/29 07:19:26;;;;;;;11.57;6.15;;;16.10;99.90;;;;;;5061077;27;20202;-84
2023/07/29 07:21:54;;;;;;;8.30;5.45;;;16.20;99.90;;;;;;5027968;28;20190;-84
2023/07/29 07:24:22;;;;;;;8.82;6.28;;;16.30;99.90;;;;;;5025611;28;20194;-85
2023/07/29 07:26:51;;;;;;;9.25;6.03;;;16.30;99.90;;;;;;5027272;28;20190;-85
2023/07/29 07:29:19;;;;;;;8.63;5.57;;;16.30;99.90;;;;;;5024614;28;20187;-83
2023/07/29 07:31:56;;;;;;;6.47;5.10;;;16.10;99.90;;;;;;5026867;28;20202;-85
2023/07/29 07:34:25;;;;;;;10.15;5.95;;;15.90;99.90;;;;;;5025277;28;20188;-84
2023/07/29 07:36:53;;;;;;;8.38;5.82;;;16.00;99.90;;;;;;5039396;28;20212;-85
2023/07/29 07:39:22;;;;;;;6.43;5.07;;;16.30;99.90;;;;;;5009342;28;20282;-84
2023/07/29 07:41:50;;;;;;;7.78;5.15;;;16.30;99.90;;;;;;5009341;28;20190;-84
2023/07/29 07:44:19;;;;;;;10.35;5.55;;;16.40;99.90;;;;;;5026848;28;20230;-85
2023/07/29 07:46:47;;;;;;;11.63;6.60;;;16.40;99.90;;;;;;5027383;28;20297;-84
2023/07/29 07:49:15;;;;;;;6.93;4.72;;;16.50;99.90;;;;;;5023935;28;20186;-84
2023/07/29 07:51:44;;;;;;;13.57;7.70;;;16.60;99.90;;;;;;5042670;28;20575;-84
2023/07/29 07:54:11;;;;;;;6.05;4.68;;;16.70;99.90;;;;;;5026660;28;20194;-84
2023/07/29 07:56:39;;;;;;;9.63;5.03;;;16.70;99.90;;;;;;5026675;28;20281;-84
2023/07/29 07:59:08;;;;;;;9.30;4.95;;;16.80;99.90;;;;;;5024629;28;20186;-84
2023/07/29 08:01:39;;;;;;;6.40;4.45;;;17.00;99.90;;;;;;5027079;28;20205;-84
2023/07/29 08:04:07;;;;;;;7.55;4.35;;;17.00;99.90;;;;;;5026819;28;20276;-84
2023/07/29 08:06:35;;;;;;;12.52;5.50;;;17.10;99.90;;;;;;5025214;28;20266;-84
2023/07/29 08:09:03;;;;;;;9.40;4.53;;;17.10;99.90;;;;;;5025078;28;20564;-83
2023/07/29 08:11:31;;;;;;;10.20;6.25;;;17.10;99.90;;;;;;5026392;28;20188;-84
2023/07/29 08:14:00;;;;;;;8.45;5.40;;;17.20;99.90;;;;;;5026342;28;20202;-84
2023/07/29 08:16:30;;;;;;;9.13;5.10;;;17.30;99.90;;;;;;5025567;28;20194;-84
2023/07/29 08:19:00;;;;;;;5.70;3.75;;;17.50;99.90;;;;;;5024232;28;20387;-84
2023/07/29 08:21:28;;;;;;;7.03;4.05;;;17.50;99.90;;;;;;5026801;28;20190;-84
2023/07/29 08:23:57;;;;;;;9.55;4.35;;;17.40;99.90;;;;;;5025740;28;20190;-84
2023/07/29 08:26:25;;;;;;;5.32;4.07;;;17.30;99.90;;;;;;5035342;28;20190;-83
2023/07/29 08:28:52;;;;;;;8.63;4.07;;;17.10;99.90;;;;;;5023855;28;20221;-84
2023/07/29 08:31:21;;;;;;;6.03;4.15;;;17.00;99.90;;;;;;5024999;28;20201;-84
2023/07/29 08:33:50;;;;;;;6.20;3.97;;;17.00;99.90;;;;;;5024586;28;20198;-83
2023/07/29 08:36:18;;;;;;;6.05;3.80;;;17.20;99.90;;;;;;5037663;28;20198;-84
2023/07/29 08:38:46;;;;;;;9.65;4.47;;;17.20;99.90;;;;;;5025201;28;20272;-84
2023/07/29 08:41:21;;;;;;;12.32;4.35;;;17.60;99.90;;;;;;5024742;28;20185;-84
2023/07/29 08:43:58;;;;;;;6.30;3.45;;;17.50;99.90;;;;;;5021610;28;20591;-85
2023/07/29 08:46:29;;;;;;;6.18;4.05;;;17.60;99.90;;;;;;5010385;28;20258;-84
2023/07/29 08:48:57;;;;;;;11.95;8.65;;;17.70;99.90;;;;;;5024807;28;20194;-84
2023/07/29 08:51:26;;;;;;;15.95;8.55;;;17.60;99.90;;;;;;5023607;28;20273;-84
2023/07/29 08:53:54;;;;;;;9.82;3.95;;;17.50;99.90;;;;;;5029110;27;20220;-84
2023/07/29 08:56:23;;;;;;;8.98;4.10;;;17.60;99.90;;;;;;5022555;28;20193;-83
2023/07/29 08:58:52;;;;;;;5.07;3.50;;;17.80;99.90;;;;;;5015836;28;20269;-84
2023/07/29 09:01:19;;;;;;;4.53;3.17;;;17.80;99.90;;;;;;5025411;28;20186;-84
2023/07/29 09:03:47;;;;;;;6.22;3.40;;;18.10;99.90;;;;;;5022406;28;20779;-82
2023/07/29 09:06:16;;;;;;;7.43;3.20;;;18.10;99.90;;;;;;5025541;28;20201;-85
2023/07/29 09:08:45;;;;;;;4.53;3.20;;;18.10;99.90;;;;;;5020966;28;20198;-84
2023/07/29 09:11:19;;;;;;;5.80;2.90;;;18.20;99.90;;;;;;5024036;28;20193;-84
2023/07/29 09:13:48;;;;;;;5.70;3.05;;;18.10;99.90;;;;;;5023054;28;20564;-84
2023/07/29 09:16:17;;;;;;;7.78;3.15;;;18.20;99.90;;;;;;5020554;28;20207;-84
2023/07/29 09:18:47;;;;;;;63.85;37.30;;;18.30;99.90;;;;;;5022556;28;20186;-84
2023/07/29 09:21:22;;;;;;;9.63;5.20;;;18.20;99.90;;;;;;5028716;28;20186;-84
2023/07/29 09:23:51;;;;;;;6.25;3.15;;;18.00;99.90;;;;;;5025347;28;20209;-84
2023/07/29 09:26:28;;;;;;;4.25;2.55;;;17.90;99.90;;;;;;5022485;28;20192;-84
2023/07/29 09:28:58;;;;;;;4.28;2.97;;;17.70;99.90;;;;;;5016254;28;20288;-84
2023/07/29 09:31:27;;;;;;;5.45;3.28;;;17.50;99.90;;;;;;5024456;28;20193;-84
2023/07/29 09:34:04;;;;;;;5.68;2.92;;;17.40;99.90;;;;;;5033708;28;20715;-84
2023/07/29 09:36:33;;;;;;;6.30;3.10;;;17.40;99.90;;;;;;5021613;28;20569;-84
2023/07/29 09:39:03;;;;;;;5.40;3.90;;;17.20;99.90;;;;;;5024018;28;20186;-84
2023/07/29 09:41:31;;;;;;;4.10;3.10;;;17.10;99.90;;;;;;5028437;28;20280;-85
2023/07/29 09:44:02;;;;;;;6.53;3.78;;;17.10;99.90;;;;;;5040847;28;20229;-85
2023/07/29 09:46:37;;;;;;;4.82;3.28;;;17.20;99.90;;;;;;5026739;28;20258;-84
2023/07/29 09:49:07;;;;;;;8.13;4.10;;;17.40;99.90;;;;;;5027387;28;20186;-83
2023/07/29 09:51:39;;;;;;;6.20;3.92;;;17.70;99.90;;;;;;5018648;28;20190;-85
2023/07/29 09:54:13;;;;;;;8.95;4.28;;;18.00;99.90;;;;;;5025859;28;20198;-85
2023/07/29 09:56:44;;;;;;;9.20;4.22;;;18.40;99.90;;;;;;5018669;28;20200;-85
2023/07/29 09:59:13;;;;;;;9.57;3.65;;;18.70;99.90;;;;;;5037291;28;20181;-84
2023/07/29 10:01:42;;;;;;;6.43;3.80;;;18.80;99.90;;;;;;5030587;28;20189;-84
2023/07/29 10:04:12;;;;;;;5.85;3.33;;;18.40;99.90;;;;;;5015103;28;20220;-86
2023/07/29 10:06:42;;;;;;;7.03;3.63;;;18.20;99.90;;;;;;5010260;28;20605;-85
2023/07/29 10:09:12;;;;;;;8.40;3.00;;;18.20;99.90;;;;;;5023944;28;20301;-87
2023/07/29 10:11:41;;;;;;;3.80;2.85;;;18.40;99.90;;;;;;5025780;28;20198;-85
2023/07/29 10:14:10;;;;;;;8.07;3.88;;;18.20;99.90;;;;;;5027315;28;20206;-85
2023/07/29 10:16:41;;;;;;;4.82;3.53;;;18.00;99.90;;;;;;5029636;28;20182;-86
2023/07/29 10:19:10;;;;;;;5.55;3.63;;;18.20;99.90;;;;;;5032021;28;20178;-86
2023/07/29 10:21:40;;;;;;;5.43;3.58;;;18.70;99.90;;;;;;5028080;28;20218;-85
2023/07/29 10:24:16;;;;;;;5.05;3.47;;;18.90;99.90;;;;;;5031863;28;20182;-85
2023/07/29 10:26:47;;;;;;;6.75;3.40;;;19.00;99.90;;;;;;5040539;27;20201;-86
2023/07/29 10:29:21;;;;;;;5.05;2.78;;;19.10;99.90;;;;;;5021303;27;20194;-86
2023/07/29 10:31:51;;;;;;;7.82;3.40;;;19.00;99.90;;;;;;5026945;28;20569;-86
2023/07/29 10:34:21;;;;;;;5.63;3.72;;;18.70;99.90;;;;;;5010991;28;20328;-86
2023/07/29 10:36:49;;;;;;;7.30;3.38;;;18.50;99.90;;;;;;5027832;28;20190;-84
2023/07/29 10:39:17;;;;;;;8.65;3.13;;;18.60;99.90;;;;;;5032706;28;20194;-85
2023/07/29 10:42:02;;;;;;;8.27;3.47;;;18.80;99.90;;;;;;5016480;28;20204;-85
2023/07/29 10:44:54;;;;;;;8.55;2.88;;;19.10;99.90;;;;;;5030787;28;20249;-84
2023/07/29 10:47:27;;;;;;;6.03;3.35;;;19.20;99.90;;;;;;5030728;28;20182;-84
2023/07/29 10:49:57;;;;;;;4.75;2.72;;;19.30;99.90;;;;;;5030125;28;20268;-85
2023/07/29 10:52:34;;;;;;;6.75;3.10;;;19.50;99.90;;;;;;5029563;28;20190;-85
2023/07/29 10:55:03;;;;;;;5.40;2.72;;;19.50;99.90;;;;;;5027118;28;20186;-85
2023/07/29 10:57:36;;;;;;;6.55;3.13;;;19.40;99.90;;;;;;5028987;28;20178;-85
2023/07/29 11:00:05;;;;;;;3.47;2.80;;;19.40;99.90;;;;;;5028727;28;20186;-85
2023/07/29 11:02:35;;;;;;;4.95;2.80;;;19.50;99.90;;;;;;5028778;28;20278;-85
2023/07/29 11:05:22;;;;;;;7.40;2.88;;;19.60;99.90;;;;;;5028814;28;20185;-85
2023/07/29 11:07:50;;;;;;;4.68;2.90;;;19.60;99.90;;;;;;5028670;28;20177;-86
2023/07/29 11:10:18;;;;;;;5.25;2.92;;;19.40;99.90;;;;;;5027084;28;20217;-85
2023/07/29 11:12:54;;;;;;;6.50;2.80;;;19.40;99.90;;;;;;5043397;28;20220;-85
2023/07/29 11:15:23;;;;;;;5.57;2.97;;;19.30;99.90;;;;;;5043335;28;20174;-85
2023/07/29 11:17:59;;;;;;;6.00;3.40;;;19.40;99.90;;;;;;5026824;28;20189;-85
2023/07/29 11:20:33;;;;;;;4.22;2.67;;;19.40;99.90;;;;;;5028289;28;20294;-85
2023/07/29 11:23:03;;;;;;;4.55;2.92;;;19.50;99.90;;;;;;5043530;28;20198;-86
2023/07/29 11:25:33;;;;;;;3.92;3.17;;;20.00;99.90;;;;;;5028247;28;20230;-85
2023/07/29 11:28:01;;;;;;;2.78;2.40;;;20.20;99.90;;;;;;5027006;28;20298;-85
2023/07/29 11:30:33;;;;;;;6.28;3.45;;;19.90;99.90;;;;;;5026994;28;20170;-85
2023/07/29 11:33:01;;;;;;;5.82;2.85;;;19.90;99.90;;;;;;5027920;28;20205;-86
2023/07/29 11:35:29;;;;;;;5.25;2.75;;;19.90;99.90;;;;;;5026559;28;20275;-85
2023/07/29 11:37:57;;;;;;;6.40;2.97;;;20.30;99.90;;;;;;5028017;28;20655;-85
2023/07/29 11:40:25;;;;;;;4.25;2.63;;;19.90;99.90;;;;;;5043059;28;20290;-85
2023/07/29 11:42:54;;;;;;;4.22;2.35;;;19.70;99.90;;;;;;5026481;28;20187;-85
2023/07/29 11:45:23;;;;;;;7.72;2.90;;;19.50;99.90;;;;;;5026429;28;20603;-84
2023/07/29 11:48:02;;;;;;;5.32;3.50;;;19.60;99.90;;;;;;5026517;28;20227;-85
2023/07/29 11:50:30;;;;;;;4.72;2.60;;;20.00;99.90;;;;;;5027818;28;20235;-85
2023/07/29 11:52:58;;;;;;;6.03;3.38;;;20.40;99.90;;;;;;5027656;28;20266;-85
2023/07/29 11:55:26;;;;;;;3.78;2.78;;;20.60;99.90;;;;;;5026408;28;20221;-85
2023/07/29 11:57:54;;;;;;;5.70;2.55;;;20.80;99.90;;;;;;5027571;28;20239;-84
2023/07/29 12:00:22;;;;;;;4.57;2.75;;;20.90;99.90;;;;;;5026282;28;20780;-84
2023/07/29 12:02:50;;;;;;;5.38;2.78;;;21.10;99.90;;;;;;5027419;28;20261;-84
2023/07/29 12:05:21;;;;;;;3.97;2.58;;;21.20;99.90;;;;;;5024832;28;20193;-85
2023/07/29 12:07:49;;;;;;;10.18;3.08;;;21.40;99.90;;;;;;5026271;28;20266;-85
2023/07/29 12:10:18;;;;;;;5.57;2.47;;;21.40;99.90;;;;;;5026466;28;20217;-85
2023/07/29 12:12:50;;;;;;;4.25;2.25;;;21.20;99.90;;;;;;5027583;28;20305;-85
2023/07/29 12:15:26;;;;;;;13.15;2.75;;;21.20;99.90;;;;;;5042606;28;20186;-84
2023/07/29 12:17:57;;;;;;;3.42;2.20;;;21.00;99.90;;;;;;5027473;28;20173;-85
2023/07/29 12:20:26;;;;;;;3.90;2.20;;;21.00;99.90;;;;;;5036528;28;20668;-85
2023/07/29 12:23:05;;;;;;;5.13;2.60;;;21.30;99.90;;;;;;5025928;28;20225;-85
2023/07/29 12:25:34;;;;;;;5.55;2.42;;;21.70;99.90;;;;;;5022533;28;20289;-85
2023/07/29 12:28:11;;;;;;;2.60;1.73;;;21.80;99.90;;;;;;5020998;28;20608;-85
2023/07/29 12:30:42;;;;;;;3.45;2.35;;;22.10;99.90;;;;;;5006258;28;20167;-85
2023/07/29 12:33:11;;;;;;;3.58;2.22;;;21.70;99.90;;;;;;5007136;28;20210;-85
2023/07/29 12:35:39;;;;;;;3.42;1.88;;;21.80;99.90;;;;;;5007351;28;20208;-85
2023/07/29 12:38:07;;;;;;;3.38;2.63;;;21.90;99.90;;;;;;5006856;28;20185;-84
2023/07/29 12:40:39;;;;;;;2.88;1.73;;;22.00;99.90;;;;;;5005607;28;20520;-85
2023/07/29 12:43:07;;;;;;;3.85;2.22;;;21.90;99.90;;;;;;5006791;28;20371;-84
2023/07/29 12:45:41;;;;;;;2.92;1.80;;;21.90;99.90;;;;;;5006821;28;20231;-85
2023/07/29 12:48:09;;;;;;;4.60;2.17;;;21.70;99.90;;;;;;5007292;28;20197;-84
2023/07/29 12:50:38;;;;;;;2.78;2.15;;;21.70;99.90;;;;;;5022280;28;20205;-84
2023/07/29 12:53:07;;;;;;;2.58;1.80;;;22.00;99.90;;;;;;5005562;28;20218;-83
2023/07/29 12:55:35;;;;;;;3.42;2.10;;;21.90;99.90;;;;;;5006984;28;20203;-84